sensor_id;sensor_type;location;lat;lon;timestamp;P1;durP1;ratioP1;P2;durP2;ratioP2
20669;SDS011;10494;50.868;4.180;2023-03-17T00:02:16;4.90;;;1.95;;
20669;SDS011;10494;50.868;4.180;2023-03-17T00:04:43;3.35;;;1.70;;
20669;SDS011;10494;50.868;4.180;2023-03-17T00:07:09;6.45;;;1.42;;
20669;SDS011;10494;50.868;4.180;2023-03-17T00:09:38;3.63;;;2.00;;
20669;SDS011;10494;50.868;4.180;2023-03-17T00:12:08;4.82;;;1.90;;
20669;SDS011;10494;50.868;4.180;2023-03-17T00:14:34;3.80;;;1.80;;
20669;SDS011;10494;50.868;4.180;2023-03-17T00:17:00;2.40;;;1.58;;
20669;SDS011;10494;50.868;4.180;2023-03-17T00:19:29;4.40;;;1.90;;
20669;SDS011;10494;50.868;4.180;2023-03-17T00:21:58;3.72;;;2.00;;
20669;SDS011;10494;50.868;4.180;2023-03-17T00:24:24;2.83;;;1.70;;
20669;SDS011;10494;50.868;4.180;2023-03-17T00:26:50;1.98;;;1.33;;
20669;SDS011;10494;50.868;4.180;2023-03-17T00:29:16;4.57;;;1.60;;
20669;SDS011;10494;50.868;4.180;2023-03-17T00:31:42;4.25;;;1.60;;
20669;SDS011;10494;50.868;4.180;2023-03-17T00:34:14;6.00;;;1.83;;
20669;SDS011;10494;50.868;4.180;2023-03-17T00:36:42;2.90;;;1.70;;
20669;SDS011;10494;50.868;4.180;2023-03-17T00:39:12;5.30;;;1.77;;
20669;SDS011;10494;50.868;4.180;2023-03-17T00:41:38;4.30;;;2.10;;
20669;SDS011;10494;50.868;4.180;2023-03-17T00:44:04;2.58;;;1.95;;
20669;SDS011;10494;50.868;4.180;2023-03-17T00:46:31;2.90;;;1.80;;
20669;SDS011;10494;50.868;4.180;2023-03-17T00:49:03;3.63;;;1.98;;
20669;SDS011;10494;50.868;4.180;2023-03-17T00:51:34;4.53;;;1.65;;
20669;SDS011;10494;50.868;4.180;2023-03-17T00:54:00;2.97;;;1.70;;
20669;SDS011;10494;50.868;4.180;2023-03-17T00:56:26;3.80;;;1.90;;
20669;SDS011;10494;50.868;4.180;2023-03-17T00:58:51;2.97;;;2.05;;
20669;SDS011;10494;50.868;4.180;2023-03-17T01:01:17;2.90;;;1.33;;
20669;SDS011;10494;50.868;4.180;2023-03-17T01:03:43;3.30;;;1.88;;
20669;SDS011;10494;50.868;4.180;2023-03-17T01:06:09;4.85;;;1.60;;
20669;SDS011;10494;50.868;4.180;2023-03-17T01:08:36;2.55;;;1.55;;
20669;SDS011;10494;50.868;4.180;2023-03-17T01:11:04;3.70;;;1.60;;
20669;SDS011;10494;50.868;4.180;2023-03-17T01:13:30;2.90;;;1.45;;
20669;SDS011;10494;50.868;4.180;2023-03-17T01:15:56;3.60;;;2.03;;
20669;SDS011;10494;50.868;4.180;2023-03-17T01:18:21;4.25;;;1.67;;
20669;SDS011;10494;50.868;4.180;2023-03-17T01:20:47;3.90;;;2.08;;
20669;SDS011;10494;50.868;4.180;2023-03-17T01:23:14;4.93;;;2.17;;
20669;SDS011;10494;50.868;4.180;2023-03-17T01:25:41;2.60;;;1.85;;
20669;SDS011;10494;50.868;4.180;2023-03-17T01:28:09;3.60;;;1.98;;
20669;SDS011;10494;50.868;4.180;2023-03-17T01:30:39;8.15;;;2.30;;
20669;SDS011;10494;50.868;4.180;2023-03-17T01:33:06;5.72;;;1.92;;
20669;SDS011;10494;50.868;4.180;2023-03-17T01:35:33;5.00;;;2.20;;
20669;SDS011;10494;50.868;4.180;2023-03-17T01:38:00;6.07;;;2.00;;
20669;SDS011;10494;50.868;4.180;2023-03-17T01:40:29;3.35;;;1.88;;
20669;SDS011;10494;50.868;4.180;2023-03-17T01:49:00;3.90;;;1.98;;
20669;SDS011;10494;50.868;4.180;2023-03-17T01:54:25;4.45;;;1.83;;
20669;SDS011;10494;50.868;4.180;2023-03-17T01:57:04;3.75;;;1.80;;
20669;SDS011;10494;50.868;4.180;2023-03-17T01:59:42;6.45;;;2.05;;
20669;SDS011;10494;50.868;4.180;2023-03-17T02:02:16;3.35;;;1.70;;
20669;SDS011;10494;50.868;4.180;2023-03-17T02:04:46;3.35;;;1.50;;
20669;SDS011;10494;50.868;4.180;2023-03-17T02:07:16;4.80;;;1.90;;
20669;SDS011;10494;50.868;4.180;2023-03-17T02:09:43;6.67;;;1.60;;
20669;SDS011;10494;50.868;4.180;2023-03-17T02:12:10;4.85;;;1.90;;
20669;SDS011;10494;50.868;4.180;2023-03-17T02:14:37;9.68;;;3.13;;
20669;SDS011;10494;50.868;4.180;2023-03-17T02:17:03;3.35;;;1.70;;
20669;SDS011;10494;50.868;4.180;2023-03-17T02:19:29;4.43;;;1.67;;
20669;SDS011;10494;50.868;4.180;2023-03-17T02:21:55;4.75;;;1.75;;
20669;SDS011;10494;50.868;4.180;2023-03-17T02:27:25;4.10;;;1.70;;
20669;SDS011;10494;50.868;4.180;2023-03-17T02:29:56;4.25;;;1.63;;
20669;SDS011;10494;50.868;4.180;2023-03-17T02:32:22;2.95;;;1.60;;
20669;SDS011;10494;50.868;4.180;2023-03-17T02:34:47;5.18;;;1.92;;
20669;SDS011;10494;50.868;4.180;2023-03-17T02:37:14;3.78;;;1.75;;
20669;SDS011;10494;50.868;4.180;2023-03-17T02:39:41;5.88;;;1.88;;
20669;SDS011;10494;50.868;4.180;2023-03-17T02:42:07;1.67;;;1.15;;
20669;SDS011;10494;50.868;4.180;2023-03-17T02:44:33;2.40;;;1.30;;
20669;SDS011;10494;50.868;4.180;2023-03-17T02:46:59;4.40;;;1.63;;
20669;SDS011;10494;50.868;4.180;2023-03-17T02:49:26;5.47;;;1.77;;
20669;SDS011;10494;50.868;4.180;2023-03-17T02:51:52;2.67;;;1.67;;
20669;SDS011;10494;50.868;4.180;2023-03-17T02:54:18;2.28;;;1.52;;
20669;SDS011;10494;50.868;4.180;2023-03-17T02:56:44;4.45;;;2.10;;
20669;SDS011;10494;50.868;4.180;2023-03-17T02:59:09;3.92;;;1.60;;
20669;SDS011;10494;50.868;4.180;2023-03-17T03:01:35;2.92;;;1.60;;
20669;SDS011;10494;50.868;4.180;2023-03-17T03:04:03;3.85;;;1.70;;
20669;SDS011;10494;50.868;4.180;2023-03-17T03:06:29;4.93;;;1.95;;
20669;SDS011;10494;50.868;4.180;2023-03-17T03:08:55;4.93;;;1.58;;
20669;SDS011;10494;50.868;4.180;2023-03-17T03:11:21;3.92;;;1.40;;
20669;SDS011;10494;50.868;4.180;2023-03-17T03:13:47;3.70;;;1.58;;
20669;SDS011;10494;50.868;4.180;2023-03-17T03:16:13;3.28;;;1.63;;
20669;SDS011;10494;50.868;4.180;2023-03-17T03:18:39;4.28;;;2.08;;
20669;SDS011;10494;50.868;4.180;2023-03-17T03:21:05;3.28;;;1.70;;
20669;SDS011;10494;50.868;4.180;2023-03-17T03:23:31;4.10;;;1.73;;
20669;SDS011;10494;50.868;4.180;2023-03-17T03:25:57;5.47;;;1.75;;
20669;SDS011;10494;50.868;4.180;2023-03-17T03:28:23;4.57;;;1.52;;
20669;SDS011;10494;50.868;4.180;2023-03-17T03:30:48;3.28;;;1.80;;
20669;SDS011;10494;50.868;4.180;2023-03-17T03:33:14;3.65;;;1.90;;
20669;SDS011;10494;50.868;4.180;2023-03-17T03:35:41;3.28;;;1.65;;
20669;SDS011;10494;50.868;4.180;2023-03-17T03:38:08;5.18;;;1.67;;
20669;SDS011;10494;50.868;4.180;2023-03-17T03:40:34;7.93;;;1.80;;
20669;SDS011;10494;50.868;4.180;2023-03-17T03:43:01;5.15;;;2.03;;
20669;SDS011;10494;50.868;4.180;2023-03-17T03:45:26;3.15;;;1.67;;
20669;SDS011;10494;50.868;4.180;2023-03-17T03:47:52;18.95;;;2.75;;
20669;SDS011;10494;50.868;4.180;2023-03-17T03:50:18;6.03;;;1.65;;
20669;SDS011;10494;50.868;4.180;2023-03-17T03:52:43;3.33;;;2.00;;
20669;SDS011;10494;50.868;4.180;2023-03-17T03:55:09;3.72;;;1.98;;
20669;SDS011;10494;50.868;4.180;2023-03-17T03:57:35;5.65;;;1.63;;
20669;SDS011;10494;50.868;4.180;2023-03-17T04:00:01;3.50;;;1.90;;
20669;SDS011;10494;50.868;4.180;2023-03-17T04:02:29;3.17;;;1.80;;
20669;SDS011;10494;50.868;4.180;2023-03-17T04:04:55;5.10;;;1.80;;
20669;SDS011;10494;50.868;4.180;2023-03-17T04:07:21;5.88;;;1.98;;
20669;SDS011;10494;50.868;4.180;2023-03-17T04:09:47;6.30;;;2.15;;
20669;SDS011;10494;50.868;4.180;2023-03-17T04:12:16;2.80;;;1.80;;
20669;SDS011;10494;50.868;4.180;2023-03-17T04:14:42;3.67;;;1.77;;
20669;SDS011;10494;50.868;4.180;2023-03-17T04:17:09;5.78;;;1.85;;
20669;SDS011;10494;50.868;4.180;2023-03-17T04:19:35;4.07;;;1.70;;
20669;SDS011;10494;50.868;4.180;2023-03-17T04:22:01;4.03;;;2.08;;
20669;SDS011;10494;50.868;4.180;2023-03-17T04:24:27;3.60;;;1.92;;
20669;SDS011;10494;50.868;4.180;2023-03-17T04:26:53;3.40;;;1.80;;
20669;SDS011;10494;50.868;4.180;2023-03-17T04:29:19;3.08;;;1.80;;
20669;SDS011;10494;50.868;4.180;2023-03-17T04:31:44;4.60;;;2.15;;
20669;SDS011;10494;50.868;4.180;2023-03-17T04:34:14;3.55;;;1.98;;
20669;SDS011;10494;50.868;4.180;2023-03-17T04:36:42;3.17;;;1.73;;
20669;SDS011;10494;50.868;4.180;2023-03-17T04:39:09;5.10;;;1.85;;
20669;SDS011;10494;50.868;4.180;2023-03-17T04:41:34;3.58;;;1.70;;
20669;SDS011;10494;50.868;4.180;2023-03-17T04:44:00;2.92;;;1.60;;
20669;SDS011;10494;50.868;4.180;2023-03-17T04:46:26;2.65;;;1.73;;
20669;SDS011;10494;50.868;4.180;2023-03-17T04:48:51;3.75;;;1.60;;
20669;SDS011;10494;50.868;4.180;2023-03-17T04:51:17;4.20;;;1.80;;
20669;SDS011;10494;50.868;4.180;2023-03-17T04:53:43;4.50;;;1.80;;
20669;SDS011;10494;50.868;4.180;2023-03-17T04:56:09;8.70;;;1.93;;
20669;SDS011;10494;50.868;4.180;2023-03-17T04:58:35;5.25;;;2.00;;
20669;SDS011;10494;50.868;4.180;2023-03-17T05:01:01;4.70;;;1.90;;
20669;SDS011;10494;50.868;4.180;2023-03-17T05:03:27;2.63;;;1.67;;
20669;SDS011;10494;50.868;4.180;2023-03-17T05:05:55;4.13;;;1.90;;
20669;SDS011;10494;50.868;4.180;2023-03-17T05:08:21;4.57;;;2.17;;
20669;SDS011;10494;50.868;4.180;2023-03-17T05:10:47;2.60;;;1.60;;
20669;SDS011;10494;50.868;4.180;2023-03-17T05:13:13;3.37;;;1.70;;
20669;SDS011;10494;50.868;4.180;2023-03-17T05:15:39;3.42;;;1.52;;
20669;SDS011;10494;50.868;4.180;2023-03-17T05:18:10;3.20;;;1.90;;
20669;SDS011;10494;50.868;4.180;2023-03-17T05:20:36;4.13;;;1.80;;
20669;SDS011;10494;50.868;4.180;2023-03-17T05:23:01;4.30;;;1.70;;
20669;SDS011;10494;50.868;4.180;2023-03-17T05:25:27;5.20;;;1.87;;
20669;SDS011;10494;50.868;4.180;2023-03-17T05:27:52;2.87;;;2.00;;
20669;SDS011;10494;50.868;4.180;2023-03-17T05:30:18;2.40;;;1.80;;
20669;SDS011;10494;50.868;4.180;2023-03-17T05:32:44;6.00;;;2.00;;
20669;SDS011;10494;50.868;4.180;2023-03-17T05:35:10;3.50;;;1.93;;
20669;SDS011;10494;50.868;4.180;2023-03-17T05:37:36;4.60;;;1.90;;
20669;SDS011;10494;50.868;4.180;2023-03-17T05:40:02;3.13;;;1.90;;
20669;SDS011;10494;50.868;4.180;2023-03-17T05:42:27;5.10;;;1.90;;
20669;SDS011;10494;50.868;4.180;2023-03-17T05:44:53;2.40;;;2.00;;
20669;SDS011;10494;50.868;4.180;2023-03-17T05:47:19;4.03;;;2.13;;
20669;SDS011;10494;50.868;4.180;2023-03-17T05:49:44;2.97;;;1.80;;
20669;SDS011;10494;50.868;4.180;2023-03-17T05:52:10;5.40;;;2.20;;
20669;SDS011;10494;50.868;4.180;2023-03-17T05:54:36;7.13;;;2.20;;
20669;SDS011;10494;50.868;4.180;2023-03-17T05:57:02;5.40;;;2.13;;
20669;SDS011;10494;50.868;4.180;2023-03-17T05:59:28;3.08;;;1.90;;
20669;SDS011;10494;50.868;4.180;2023-03-17T06:01:53;3.38;;;2.00;;
20669;SDS011;10494;50.868;4.180;2023-03-17T06:04:19;5.47;;;2.10;;
20669;SDS011;10494;50.868;4.180;2023-03-17T06:06:45;6.60;;;2.28;;
20669;SDS011;10494;50.868;4.180;2023-03-17T06:09:11;6.50;;;2.28;;
20669;SDS011;10494;50.868;4.180;2023-03-17T06:11:37;7.55;;;2.60;;
20669;SDS011;10494;50.868;4.180;2023-03-17T06:14:02;6.38;;;2.03;;
20669;SDS011;10494;50.868;4.180;2023-03-17T06:16:28;5.60;;;1.90;;
20669;SDS011;10494;50.868;4.180;2023-03-17T06:18:57;6.55;;;2.60;;
20669;SDS011;10494;50.868;4.180;2023-03-17T06:21:22;3.77;;;2.03;;
20669;SDS011;10494;50.868;4.180;2023-03-17T06:23:48;10.60;;;2.65;;
20669;SDS011;10494;50.868;4.180;2023-03-17T06:26:14;7.63;;;2.00;;
20669;SDS011;10494;50.868;4.180;2023-03-17T06:28:39;6.20;;;1.95;;
20669;SDS011;10494;50.868;4.180;2023-03-17T06:31:05;7.65;;;2.50;;
20669;SDS011;10494;50.868;4.180;2023-03-17T06:33:32;5.97;;;2.60;;
20669;SDS011;10494;50.868;4.180;2023-03-17T06:35:58;9.00;;;2.65;;
20669;SDS011;10494;50.868;4.180;2023-03-17T06:38:24;4.50;;;2.33;;
20669;SDS011;10494;50.868;4.180;2023-03-17T06:40:50;4.57;;;1.97;;
20669;SDS011;10494;50.868;4.180;2023-03-17T06:43:15;8.07;;;2.37;;
20669;SDS011;10494;50.868;4.180;2023-03-17T06:45:43;5.28;;;2.40;;
20669;SDS011;10494;50.868;4.180;2023-03-17T06:48:09;7.20;;;2.80;;
20669;SDS011;10494;50.868;4.180;2023-03-17T06:50:35;5.22;;;2.33;;
20669;SDS011;10494;50.868;4.180;2023-03-17T06:53:01;4.57;;;2.03;;
20669;SDS011;10494;50.868;4.180;2023-03-17T06:55:26;5.87;;;2.20;;
20669;SDS011;10494;50.868;4.180;2023-03-17T06:57:52;5.40;;;2.30;;
20669;SDS011;10494;50.868;4.180;2023-03-17T07:00:18;5.00;;;2.20;;
20669;SDS011;10494;50.868;4.180;2023-03-17T07:02:45;3.33;;;2.40;;
20669;SDS011;10494;50.868;4.180;2023-03-17T07:05:11;6.45;;;2.42;;
20669;SDS011;10494;50.868;4.180;2023-03-17T07:07:38;14.67;;;4.20;;
20669;SDS011;10494;50.868;4.180;2023-03-17T07:10:04;12.93;;;2.92;;
20669;SDS011;10494;50.868;4.180;2023-03-17T07:12:30;8.07;;;2.53;;
20669;SDS011;10494;50.868;4.180;2023-03-17T07:14:56;12.98;;;3.55;;
20669;SDS011;10494;50.868;4.180;2023-03-17T07:17:23;21.05;;;10.13;;
20669;SDS011;10494;50.868;4.180;2023-03-17T07:19:49;23.00;;;7.53;;
20669;SDS011;10494;50.868;4.180;2023-03-17T07:22:14;14.32;;;4.15;;
20669;SDS011;10494;50.868;4.180;2023-03-17T07:24:40;8.00;;;3.13;;
20669;SDS011;10494;50.868;4.180;2023-03-17T07:27:07;6.65;;;3.00;;
20669;SDS011;10494;50.868;4.180;2023-03-17T07:29:33;9.98;;;3.22;;
20669;SDS011;10494;50.868;4.180;2023-03-17T07:31:58;9.95;;;2.85;;
20669;SDS011;10494;50.868;4.180;2023-03-17T07:34:25;6.07;;;2.70;;
20669;SDS011;10494;50.868;4.180;2023-03-17T07:36:52;6.35;;;3.05;;
20669;SDS011;10494;50.868;4.180;2023-03-17T07:39:17;5.45;;;2.78;;
20669;SDS011;10494;50.868;4.180;2023-03-17T07:41:43;6.28;;;2.60;;
20669;SDS011;10494;50.868;4.180;2023-03-17T07:44:09;7.55;;;3.00;;
20669;SDS011;10494;50.868;4.180;2023-03-17T07:46:35;8.93;;;2.85;;
20669;SDS011;10494;50.868;4.180;2023-03-17T07:49:02;6.78;;;2.70;;
20669;SDS011;10494;50.868;4.180;2023-03-17T07:51:28;10.88;;;3.08;;
20669;SDS011;10494;50.868;4.180;2023-03-17T07:53:54;14.90;;;3.85;;
20669;SDS011;10494;50.868;4.180;2023-03-17T07:56:27;8.23;;;3.20;;
20669;SDS011;10494;50.868;4.180;2023-03-17T07:58:55;8.20;;;3.70;;
20669;SDS011;10494;50.868;4.180;2023-03-17T08:01:22;11.90;;;3.50;;
20669;SDS011;10494;50.868;4.180;2023-03-17T08:03:48;9.32;;;3.28;;
20669;SDS011;10494;50.868;4.180;2023-03-17T08:06:14;9.80;;;3.53;;
20669;SDS011;10494;50.868;4.180;2023-03-17T08:08:39;5.07;;;2.92;;
20669;SDS011;10494;50.868;4.180;2023-03-17T08:11:05;7.10;;;3.38;;
20669;SDS011;10494;50.868;4.180;2023-03-17T08:13:32;10.05;;;3.22;;
20669;SDS011;10494;50.868;4.180;2023-03-17T08:15:58;6.38;;;3.10;;
20669;SDS011;10494;50.868;4.180;2023-03-17T08:18:24;4.97;;;3.10;;
20669;SDS011;10494;50.868;4.180;2023-03-17T08:20:50;7.88;;;3.05;;
20669;SDS011;10494;50.868;4.180;2023-03-17T08:23:19;6.55;;;2.90;;
20669;SDS011;10494;50.868;4.180;2023-03-17T08:25:45;8.93;;;3.22;;
20669;SDS011;10494;50.868;4.180;2023-03-17T08:28:11;7.05;;;3.33;;
20669;SDS011;10494;50.868;4.180;2023-03-17T08:30:39;9.73;;;3.65;;
20669;SDS011;10494;50.868;4.180;2023-03-17T08:33:06;6.18;;;3.00;;
20669;SDS011;10494;50.868;4.180;2023-03-17T08:35:33;7.95;;;3.40;;
20669;SDS011;10494;50.868;4.180;2023-03-17T08:37:59;4.60;;;2.83;;
20669;SDS011;10494;50.868;4.180;2023-03-17T08:40:26;6.65;;;2.90;;
20669;SDS011;10494;50.868;4.180;2023-03-17T08:42:52;6.35;;;2.90;;
20669;SDS011;10494;50.868;4.180;2023-03-17T08:45:18;5.93;;;2.88;;
20669;SDS011;10494;50.868;4.180;2023-03-17T08:47:44;7.30;;;3.45;;
20669;SDS011;10494;50.868;4.180;2023-03-17T08:50:13;6.13;;;3.10;;
20669;SDS011;10494;50.868;4.180;2023-03-17T08:52:42;6.13;;;3.30;;
20669;SDS011;10494;50.868;4.180;2023-03-17T08:55:07;5.90;;;2.80;;
20669;SDS011;10494;50.868;4.180;2023-03-17T08:57:36;8.43;;;3.65;;
20669;SDS011;10494;50.868;4.180;2023-03-17T09:00:02;12.10;;;3.50;;
20669;SDS011;10494;50.868;4.180;2023-03-17T09:02:35;8.30;;;3.53;;
20669;SDS011;10494;50.868;4.180;2023-03-17T09:05:02;8.35;;;3.50;;
20669;SDS011;10494;50.868;4.180;2023-03-17T09:07:29;8.45;;;3.88;;
20669;SDS011;10494;50.868;4.180;2023-03-17T09:09:55;6.50;;;3.40;;
20669;SDS011;10494;50.868;4.180;2023-03-17T09:12:21;6.20;;;3.20;;
20669;SDS011;10494;50.868;4.180;2023-03-17T09:14:46;10.55;;;3.83;;
20669;SDS011;10494;50.868;4.180;2023-03-17T09:17:13;6.60;;;2.80;;
20669;SDS011;10494;50.868;4.180;2023-03-17T09:19:39;8.13;;;3.60;;
20669;SDS011;10494;50.868;4.180;2023-03-17T09:22:05;7.72;;;3.03;;
20669;SDS011;10494;50.868;4.180;2023-03-17T09:24:31;8.85;;;3.55;;
20669;SDS011;10494;50.868;4.180;2023-03-17T09:26:57;5.95;;;3.42;;
20669;SDS011;10494;50.868;4.180;2023-03-17T09:29:25;10.20;;;3.70;;
20669;SDS011;10494;50.868;4.180;2023-03-17T09:31:51;5.55;;;3.20;;
20669;SDS011;10494;50.868;4.180;2023-03-17T09:34:18;7.47;;;3.60;;
20669;SDS011;10494;50.868;4.180;2023-03-17T09:36:44;13.45;;;4.05;;
20669;SDS011;10494;50.868;4.180;2023-03-17T09:39:09;5.97;;;3.45;;
20669;SDS011;10494;50.868;4.180;2023-03-17T09:44:16;15.82;;;4.20;;
20669;SDS011;10494;50.868;4.180;2023-03-17T09:46:57;6.40;;;3.85;;
20669;SDS011;10494;50.868;4.180;2023-03-17T09:52:11;8.98;;;4.13;;
20669;SDS011;10494;50.868;4.180;2023-03-17T09:54:39;8.68;;;3.95;;
20669;SDS011;10494;50.868;4.180;2023-03-17T09:57:15;8.10;;;3.97;;
20669;SDS011;10494;50.868;4.180;2023-03-17T10:00:05;8.07;;;3.50;;
20669;SDS011;10494;50.868;4.180;2023-03-17T10:02:38;10.13;;;3.50;;
20669;SDS011;10494;50.868;4.180;2023-03-17T10:13:26;8.05;;;3.53;;
20669;SDS011;10494;50.868;4.180;2023-03-17T10:16:00;8.68;;;3.20;;
20669;SDS011;10494;50.868;4.180;2023-03-17T10:18:51;10.13;;;3.30;;
20669;SDS011;10494;50.868;4.180;2023-03-17T10:21:24;10.70;;;3.20;;
20669;SDS011;10494;50.868;4.180;2023-03-17T10:23:53;7.05;;;2.80;;
20669;SDS011;10494;50.868;4.180;2023-03-17T10:26:29;8.30;;;3.10;;
20669;SDS011;10494;50.868;4.180;2023-03-17T10:28:58;7.68;;;3.28;;
20669;SDS011;10494;50.868;4.180;2023-03-17T10:31:32;10.90;;;2.90;;
20669;SDS011;10494;50.868;4.180;2023-03-17T10:36:52;12.70;;;3.40;;
20669;SDS011;10494;50.868;4.180;2023-03-17T10:39:43;5.57;;;2.65;;
20669;SDS011;10494;50.868;4.180;2023-03-17T10:42:12;6.32;;;2.78;;
20669;SDS011;10494;50.868;4.180;2023-03-17T10:47:43;8.10;;;2.72;;
20669;SDS011;10494;50.868;4.180;2023-03-17T10:50:23;12.02;;;2.97;;
20669;SDS011;10494;50.868;4.180;2023-03-17T10:55:32;7.80;;;3.20;;
20669;SDS011;10494;50.868;4.180;2023-03-17T10:58:11;6.40;;;3.38;;
20669;SDS011;10494;50.868;4.180;2023-03-17T11:00:38;8.85;;;2.92;;
20669;SDS011;10494;50.868;4.180;2023-03-17T11:03:31;6.35;;;3.17;;
20669;SDS011;10494;50.868;4.180;2023-03-17T11:06:08;7.60;;;3.30;;
20669;SDS011;10494;50.868;4.180;2023-03-17T11:08:39;6.55;;;2.60;;
20669;SDS011;10494;50.868;4.180;2023-03-17T11:11:07;7.28;;;3.28;;
20669;SDS011;10494;50.868;4.180;2023-03-17T11:13:45;7.47;;;2.97;;
20669;SDS011;10494;50.868;4.180;2023-03-17T11:16:21;10.25;;;3.33;;
20669;SDS011;10494;50.868;4.180;2023-03-17T11:18:53;6.88;;;3.00;;
20669;SDS011;10494;50.868;4.180;2023-03-17T11:29:18;5.30;;;3.28;;
20669;SDS011;10494;50.868;4.180;2023-03-17T11:34:17;9.95;;;3.38;;
20669;SDS011;10494;50.868;4.180;2023-03-17T11:37:11;10.15;;;3.15;;
20669;SDS011;10494;50.868;4.180;2023-03-17T11:39:52;9.07;;;3.45;;
20669;SDS011;10494;50.868;4.180;2023-03-17T11:42:30;7.30;;;3.28;;
20669;SDS011;10494;50.868;4.180;2023-03-17T11:50:14;6.18;;;3.30;;
20669;SDS011;10494;50.868;4.180;2023-03-17T11:58:38;5.82;;;3.15;;
20669;SDS011;10494;50.868;4.180;2023-03-17T12:01:06;6.13;;;2.85;;
20669;SDS011;10494;50.868;4.180;2023-03-17T12:03:43;6.18;;;3.63;;
20669;SDS011;10494;50.868;4.180;2023-03-17T12:06:24;5.97;;;3.35;;
20669;SDS011;10494;50.868;4.180;2023-03-17T12:08:59;7.32;;;3.63;;
20669;SDS011;10494;50.868;4.180;2023-03-17T12:11:35;6.25;;;3.17;;
20669;SDS011;10494;50.868;4.180;2023-03-17T12:14:05;5.97;;;3.17;;
20669;SDS011;10494;50.868;4.180;2023-03-17T12:16:38;6.20;;;3.00;;
20669;SDS011;10494;50.868;4.180;2023-03-17T12:21:50;4.78;;;2.78;;
20669;SDS011;10494;50.868;4.180;2023-03-17T12:24:29;7.20;;;3.78;;
20669;SDS011;10494;50.868;4.180;2023-03-17T12:26:58;9.05;;;3.88;;
20669;SDS011;10494;50.868;4.180;2023-03-17T12:35:42;8.50;;;3.38;;
20669;SDS011;10494;50.868;4.180;2023-03-17T12:37:59;8.95;;;3.28;;
20669;SDS011;10494;50.868;4.180;2023-03-17T12:40:34;5.82;;;3.30;;
20669;SDS011;10494;50.868;4.180;2023-03-17T12:45:55;14.40;;;5.40;;
20669;SDS011;10494;50.868;4.180;2023-03-17T12:48:49;8.75;;;3.60;;
20669;SDS011;10494;50.868;4.180;2023-03-17T12:54:01;8.82;;;4.35;;
20669;SDS011;10494;50.868;4.180;2023-03-17T12:56:28;15.15;;;5.22;;
20669;SDS011;10494;50.868;4.180;2023-03-17T12:58:59;10.73;;;4.47;;
20669;SDS011;10494;50.868;4.180;2023-03-17T13:06:52;11.60;;;5.68;;
20669;SDS011;10494;50.868;4.180;2023-03-17T13:12:01;13.73;;;6.50;;
20669;SDS011;10494;50.868;4.180;2023-03-17T13:22:35;16.38;;;7.22;;
20669;SDS011;10494;50.868;4.180;2023-03-17T13:28:00;6.55;;;3.38;;
20669;SDS011;10494;50.868;4.180;2023-03-17T13:30:43;8.50;;;3.30;;
20669;SDS011;10494;50.868;4.180;2023-03-17T13:33:21;5.78;;;2.63;;
20669;SDS011;10494;50.868;4.180;2023-03-17T13:36:06;12.90;;;2.45;;
20669;SDS011;10494;50.868;4.180;2023-03-17T13:38:46;6.30;;;2.25;;
20669;SDS011;10494;50.868;4.180;2023-03-17T13:44:03;6.38;;;2.25;;
20669;SDS011;10494;50.868;4.180;2023-03-17T13:51:52;5.32;;;2.63;;
20669;SDS011;10494;50.868;4.180;2023-03-17T13:54:28;7.15;;;2.45;;
20669;SDS011;10494;50.868;4.180;2023-03-17T14:02:41;8.93;;;3.00;;
20669;SDS011;10494;50.868;4.180;2023-03-17T14:05:17;10.45;;;2.53;;
20669;SDS011;10494;50.868;4.180;2023-03-17T14:08:01;9.80;;;3.17;;
20669;SDS011;10494;50.868;4.180;2023-03-17T14:10:31;5.85;;;2.40;;
20669;SDS011;10494;50.868;4.180;2023-03-17T14:13:17;9.35;;;2.95;;
20669;SDS011;10494;50.868;4.180;2023-03-17T14:15:51;5.78;;;2.97;;
20669;SDS011;10494;50.868;4.180;2023-03-17T14:18:36;7.78;;;3.00;;
20669;SDS011;10494;50.868;4.180;2023-03-17T14:21:17;8.90;;;2.55;;
20669;SDS011;10494;50.868;4.180;2023-03-17T14:23:56;14.48;;;3.08;;
20669;SDS011;10494;50.868;4.180;2023-03-17T14:26:27;8.05;;;3.13;;
20669;SDS011;10494;50.868;4.180;2023-03-17T14:28:57;6.68;;;2.67;;
20669;SDS011;10494;50.868;4.180;2023-03-17T14:31:25;9.32;;;3.10;;
20669;SDS011;10494;50.868;4.180;2023-03-17T14:33:56;7.15;;;3.05;;
20669;SDS011;10494;50.868;4.180;2023-03-17T14:36:23;5.65;;;2.20;;
20669;SDS011;10494;50.868;4.180;2023-03-17T14:38:51;6.72;;;3.00;;
20669;SDS011;10494;50.868;4.180;2023-03-17T14:41:20;8.30;;;2.80;;
20669;SDS011;10494;50.868;4.180;2023-03-17T14:43:48;15.20;;;3.63;;
20669;SDS011;10494;50.868;4.180;2023-03-17T14:48:55;8.05;;;3.45;;
20669;SDS011;10494;50.868;4.180;2023-03-17T14:51:27;6.38;;;3.08;;
20669;SDS011;10494;50.868;4.180;2023-03-17T14:54:00;6.45;;;3.15;;
20669;SDS011;10494;50.868;4.180;2023-03-17T14:56:30;11.68;;;3.17;;
20669;SDS011;10494;50.868;4.180;2023-03-17T15:02:02;13.48;;;3.97;;
20669;SDS011;10494;50.868;4.180;2023-03-17T15:04:51;7.88;;;2.92;;
20669;SDS011;10494;50.868;4.180;2023-03-17T15:07:41;8.77;;;3.85;;
20669;SDS011;10494;50.868;4.180;2023-03-17T15:10:14;10.68;;;3.10;;
20669;SDS011;10494;50.868;4.180;2023-03-17T15:12:42;8.80;;;2.83;;
20669;SDS011;10494;50.868;4.180;2023-03-17T15:15:19;10.60;;;3.55;;
20669;SDS011;10494;50.868;4.180;2023-03-17T15:17:53;8.43;;;3.30;;
20669;SDS011;10494;50.868;4.180;2023-03-17T15:20:21;6.93;;;2.78;;
20669;SDS011;10494;50.868;4.180;2023-03-17T15:22:48;9.13;;;3.30;;
20669;SDS011;10494;50.868;4.180;2023-03-17T15:28:13;6.22;;;3.10;;
20669;SDS011;10494;50.868;4.180;2023-03-17T15:30:44;8.15;;;2.92;;
20669;SDS011;10494;50.868;4.180;2023-03-17T15:35:52;9.57;;;3.13;;
20669;SDS011;10494;50.868;4.180;2023-03-17T15:38:20;8.85;;;3.13;;
20669;SDS011;10494;50.868;4.180;2023-03-17T15:40:46;6.32;;;3.53;;
20669;SDS011;10494;50.868;4.180;2023-03-17T15:43:13;13.20;;;3.05;;
20669;SDS011;10494;50.868;4.180;2023-03-17T15:45:39;6.53;;;2.75;;
20669;SDS011;10494;50.868;4.180;2023-03-17T15:48:11;9.88;;;3.03;;
20669;SDS011;10494;50.868;4.180;2023-03-17T15:50:44;16.17;;;3.05;;
20669;SDS011;10494;50.868;4.180;2023-03-17T15:53:12;8.80;;;2.58;;
20669;SDS011;10494;50.868;4.180;2023-03-17T15:55:37;5.72;;;2.65;;
20669;SDS011;10494;50.868;4.180;2023-03-17T15:58:03;10.15;;;2.40;;
20669;SDS011;10494;50.868;4.180;2023-03-17T16:00:29;6.68;;;2.50;;
20669;SDS011;10494;50.868;4.180;2023-03-17T16:02:55;6.72;;;2.30;;
20669;SDS011;10494;50.868;4.180;2023-03-17T16:05:24;6.63;;;2.40;;
20669;SDS011;10494;50.868;4.180;2023-03-17T16:07:52;5.65;;;2.30;;
20669;SDS011;10494;50.868;4.180;2023-03-17T16:10:25;12.43;;;2.95;;
20669;SDS011;10494;50.868;4.180;2023-03-17T16:12:55;5.78;;;2.47;;
20669;SDS011;10494;50.868;4.180;2023-03-17T16:15:22;6.65;;;2.45;;
20669;SDS011;10494;50.868;4.180;2023-03-17T16:17:51;7.25;;;2.75;;
20669;SDS011;10494;50.868;4.180;2023-03-17T16:20:25;8.00;;;2.95;;
20669;SDS011;10494;50.868;4.180;2023-03-17T16:22:56;7.53;;;3.10;;
20669;SDS011;10494;50.868;4.180;2023-03-17T16:25:30;8.50;;;3.38;;
20669;SDS011;10494;50.868;4.180;2023-03-17T16:27:57;10.30;;;3.53;;
20669;SDS011;10494;50.868;4.180;2023-03-17T16:30:25;7.22;;;3.42;;
20669;SDS011;10494;50.868;4.180;2023-03-17T16:32:53;9.65;;;3.30;;
20669;SDS011;10494;50.868;4.180;2023-03-17T16:35:22;9.57;;;3.65;;
20669;SDS011;10494;50.868;4.180;2023-03-17T16:37:49;9.48;;;4.40;;
20669;SDS011;10494;50.868;4.180;2023-03-17T16:40:23;8.40;;;4.15;;
20669;SDS011;10494;50.868;4.180;2023-03-17T16:42:55;10.75;;;4.20;;
20669;SDS011;10494;50.868;4.180;2023-03-17T16:47:53;11.50;;;4.00;;
20669;SDS011;10494;50.868;4.180;2023-03-17T16:50:22;10.48;;;4.82;;
20669;SDS011;10494;50.868;4.180;2023-03-17T16:52:50;14.32;;;5.03;;